sensor_id;sensor_type;location;lat;lon;timestamp;P1;durP1;ratioP1;P2;durP2;ratioP2
64907;SDS011;69061;52.236;5.188;2023-10-19T00:00:19;19.92;;;13.23;;
64907;SDS011;69061;52.236;5.188;2023-10-19T00:03:00;20.35;;;13.68;;
64907;SDS011;69061;52.236;5.188;2023-10-19T00:05:28;21.48;;;12.77;;
64907;SDS011;69061;52.236;5.188;2023-10-19T00:07:55;18.30;;;11.80;;
64907;SDS011;69061;52.236;5.188;2023-10-19T00:10:24;20.77;;;13.60;;
64907;SDS011;69061;52.236;5.188;2023-10-19T00:12:54;22.08;;;13.75;;
64907;SDS011;69061;52.236;5.188;2023-10-19T00:15:25;21.15;;;14.30;;
64907;SDS011;69061;52.236;5.188;2023-10-19T00:17:56;19.85;;;14.00;;
64907;SDS011;69061;52.236;5.188;2023-10-19T00:20:24;19.38;;;12.40;;
64907;SDS011;69061;52.236;5.188;2023-10-19T00:23:01;17.10;;;12.40;;
64907;SDS011;69061;52.236;5.188;2023-10-19T00:25:30;23.02;;;14.38;;
64907;SDS011;69061;52.236;5.188;2023-10-19T00:27:57;17.75;;;12.25;;
64907;SDS011;69061;52.236;5.188;2023-10-19T00:30:25;24.08;;;15.85;;
64907;SDS011;69061;52.236;5.188;2023-10-19T00:32:57;20.73;;;14.65;;
64907;SDS011;69061;52.236;5.188;2023-10-19T00:35:28;24.23;;;16.15;;
64907;SDS011;69061;52.236;5.188;2023-10-19T00:38:01;20.23;;;14.68;;
64907;SDS011;69061;52.236;5.188;2023-10-19T00:40:42;22.40;;;15.00;;
64907;SDS011;69061;52.236;5.188;2023-10-19T00:43:12;26.70;;;17.25;;
64907;SDS011;69061;52.236;5.188;2023-10-19T00:45:42;20.50;;;15.15;;
64907;SDS011;69061;52.236;5.188;2023-10-19T00:48:14;22.85;;;15.73;;
64907;SDS011;69061;52.236;5.188;2023-10-19T00:50:42;25.33;;;15.50;;
64907;SDS011;69061;52.236;5.188;2023-10-19T00:53:12;32.63;;;16.88;;
64907;SDS011;69061;52.236;5.188;2023-10-19T00:55:40;24.20;;;15.85;;
64907;SDS011;69061;52.236;5.188;2023-10-19T00:58:07;23.98;;;16.85;;
64907;SDS011;69061;52.236;5.188;2023-10-19T01:00:38;30.30;;;17.70;;
64907;SDS011;69061;52.236;5.188;2023-10-19T01:03:09;28.30;;;17.83;;
64907;SDS011;69061;52.236;5.188;2023-10-19T01:05:44;28.92;;;18.00;;
64907;SDS011;69061;52.236;5.188;2023-10-19T01:08:15;23.77;;;17.63;;
64907;SDS011;69061;52.236;5.188;2023-10-19T01:10:50;21.45;;;15.13;;
64907;SDS011;69061;52.236;5.188;2023-10-19T01:13:19;24.75;;;16.88;;
64907;SDS011;69061;52.236;5.188;2023-10-19T01:15:52;31.80;;;21.02;;
64907;SDS011;69061;52.236;5.188;2023-10-19T01:18:19;26.40;;;17.58;;
64907;SDS011;69061;52.236;5.188;2023-10-19T01:20:48;30.02;;;19.45;;
64907;SDS011;69061;52.236;5.188;2023-10-19T01:23:18;30.30;;;18.27;;
64907;SDS011;69061;52.236;5.188;2023-10-19T01:25:52;29.38;;;19.20;;
64907;SDS011;69061;52.236;5.188;2023-10-19T01:28:26;30.98;;;19.42;;
64907;SDS011;69061;52.236;5.188;2023-10-19T01:31:07;30.52;;;19.73;;
64907;SDS011;69061;52.236;5.188;2023-10-19T01:33:39;30.42;;;19.92;;
64907;SDS011;69061;52.236;5.188;2023-10-19T01:36:07;33.67;;;21.23;;
64907;SDS011;69061;52.236;5.188;2023-10-19T01:38:38;29.30;;;19.65;;
64907;SDS011;69061;52.236;5.188;2023-10-19T01:41:04;30.30;;;20.40;;
64907;SDS011;69061;52.236;5.188;2023-10-19T01:43:33;31.40;;;20.70;;
64907;SDS011;69061;52.236;5.188;2023-10-19T01:45:59;32.35;;;21.73;;
64907;SDS011;69061;52.236;5.188;2023-10-19T01:48:30;30.73;;;22.52;;
64907;SDS011;69061;52.236;5.188;2023-10-19T01:50:59;30.02;;;19.50;;
64907;SDS011;69061;52.236;5.188;2023-10-19T01:53:28;31.35;;;19.65;;
64907;SDS011;69061;52.236;5.188;2023-10-19T01:55:56;40.33;;;23.05;;
64907;SDS011;69061;52.236;5.188;2023-10-19T01:58:24;33.80;;;21.08;;
64907;SDS011;69061;52.236;5.188;2023-10-19T02:00:50;31.42;;;21.15;;
64907;SDS011;69061;52.236;5.188;2023-10-19T02:03:19;36.35;;;23.65;;
64907;SDS011;69061;52.236;5.188;2023-10-19T02:05:46;39.72;;;24.38;;
64907;SDS011;69061;52.236;5.188;2023-10-19T02:08:15;24.52;;;16.45;;
64907;SDS011;69061;52.236;5.188;2023-10-19T02:10:45;33.10;;;21.67;;
64907;SDS011;69061;52.236;5.188;2023-10-19T02:13:15;33.90;;;22.27;;
64907;SDS011;69061;52.236;5.188;2023-10-19T02:15:42;33.67;;;22.10;;
64907;SDS011;69061;52.236;5.188;2023-10-19T02:18:08;33.70;;;22.90;;
64907;SDS011;69061;52.236;5.188;2023-10-19T02:20:35;34.75;;;21.38;;
64907;SDS011;69061;52.236;5.188;2023-10-19T02:23:04;31.17;;;20.98;;
64907;SDS011;69061;52.236;5.188;2023-10-19T02:25:31;37.97;;;22.40;;
64907;SDS011;69061;52.236;5.188;2023-10-19T02:28:02;29.15;;;19.98;;
64907;SDS011;69061;52.236;5.188;2023-10-19T02:30:33;30.73;;;20.42;;
64907;SDS011;69061;52.236;5.188;2023-10-19T02:33:00;32.50;;;20.55;;
64907;SDS011;69061;52.236;5.188;2023-10-19T02:35:25;35.72;;;22.35;;
64907;SDS011;69061;52.236;5.188;2023-10-19T02:37:53;31.42;;;19.92;;
64907;SDS011;69061;52.236;5.188;2023-10-19T02:40:20;33.03;;;19.73;;
64907;SDS011;69061;52.236;5.188;2023-10-19T02:42:49;31.60;;;19.48;;
64907;SDS011;69061;52.236;5.188;2023-10-19T02:45:15;30.00;;;19.85;;
64907;SDS011;69061;52.236;5.188;2023-10-19T02:47:45;31.42;;;19.10;;
64907;SDS011;69061;52.236;5.188;2023-10-19T02:50:11;29.88;;;18.60;;
64907;SDS011;69061;52.236;5.188;2023-10-19T02:52:47;28.08;;;18.98;;
64907;SDS011;69061;52.236;5.188;2023-10-19T02:55:13;35.05;;;18.85;;
64907;SDS011;69061;52.236;5.188;2023-10-19T02:57:41;26.98;;;17.05;;
64907;SDS011;69061;52.236;5.188;2023-10-19T03:00:12;25.38;;;16.85;;
64907;SDS011;69061;52.236;5.188;2023-10-19T03:02:39;31.13;;;18.45;;
64907;SDS011;69061;52.236;5.188;2023-10-19T03:05:08;30.33;;;18.95;;
64907;SDS011;69061;52.236;5.188;2023-10-19T03:07:39;22.83;;;15.05;;
64907;SDS011;69061;52.236;5.188;2023-10-19T03:10:06;27.08;;;17.48;;
64907;SDS011;69061;52.236;5.188;2023-10-19T03:12:48;24.98;;;17.38;;
64907;SDS011;69061;52.236;5.188;2023-10-19T03:15:14;31.42;;;20.33;;
64907;SDS011;69061;52.236;5.188;2023-10-19T03:17:42;31.23;;;19.70;;
64907;SDS011;69061;52.236;5.188;2023-10-19T03:20:10;32.35;;;19.73;;
64907;SDS011;69061;52.236;5.188;2023-10-19T03:22:37;31.77;;;19.85;;
64907;SDS011;69061;52.236;5.188;2023-10-19T03:25:03;28.45;;;18.20;;
64907;SDS011;69061;52.236;5.188;2023-10-19T03:27:58;33.00;;;20.30;;
64907;SDS011;69061;52.236;5.188;2023-10-19T03:30:31;29.98;;;19.33;;
64907;SDS011;69061;52.236;5.188;2023-10-19T03:32:58;26.20;;;18.30;;
64907;SDS011;69061;52.236;5.188;2023-10-19T03:35:27;29.08;;;18.40;;
64907;SDS011;69061;52.236;5.188;2023-10-19T03:37:54;36.95;;;19.67;;
64907;SDS011;69061;52.236;5.188;2023-10-19T03:40:23;33.75;;;20.67;;
64907;SDS011;69061;52.236;5.188;2023-10-19T03:42:54;27.77;;;18.13;;
64907;SDS011;69061;52.236;5.188;2023-10-19T03:45:21;27.67;;;17.13;;
64907;SDS011;69061;52.236;5.188;2023-10-19T03:47:49;34.30;;;22.20;;
64907;SDS011;69061;52.236;5.188;2023-10-19T03:50:18;28.65;;;15.32;;
64907;SDS011;69061;52.236;5.188;2023-10-19T03:52:48;28.40;;;17.45;;
64907;SDS011;69061;52.236;5.188;2023-10-19T03:55:15;27.25;;;17.55;;
64907;SDS011;69061;52.236;5.188;2023-10-19T03:57:44;32.67;;;17.52;;
64907;SDS011;69061;52.236;5.188;2023-10-19T04:00:17;25.38;;;15.15;;
64907;SDS011;69061;52.236;5.188;2023-10-19T04:02:51;23.52;;;16.63;;
64907;SDS011;69061;52.236;5.188;2023-10-19T04:05:20;20.85;;;13.52;;
64907;SDS011;69061;52.236;5.188;2023-10-19T04:07:49;27.75;;;16.70;;
64907;SDS011;69061;52.236;5.188;2023-10-19T04:10:19;29.67;;;18.08;;
64907;SDS011;69061;52.236;5.188;2023-10-19T04:12:55;27.42;;;15.88;;
64907;SDS011;69061;52.236;5.188;2023-10-19T04:15:24;29.55;;;17.08;;
64907;SDS011;69061;52.236;5.188;2023-10-19T04:17:53;24.10;;;14.50;;
64907;SDS011;69061;52.236;5.188;2023-10-19T04:20:24;23.42;;;14.15;;
64907;SDS011;69061;52.236;5.188;2023-10-19T04:23:10;24.33;;;15.77;;
64907;SDS011;69061;52.236;5.188;2023-10-19T04:25:39;27.50;;;14.57;;
64907;SDS011;69061;52.236;5.188;2023-10-19T04:28:06;19.63;;;11.18;;
64907;SDS011;69061;52.236;5.188;2023-10-19T04:30:34;20.17;;;12.77;;
64907;SDS011;69061;52.236;5.188;2023-10-19T04:33:02;22.92;;;13.55;;
64907;SDS011;69061;52.236;5.188;2023-10-19T04:35:34;17.58;;;10.75;;
64907;SDS011;69061;52.236;5.188;2023-10-19T04:38:03;23.33;;;12.50;;
64907;SDS011;69061;52.236;5.188;2023-10-19T04:40:32;15.02;;;10.20;;
64907;SDS011;69061;52.236;5.188;2023-10-19T04:43:02;20.10;;;10.38;;
64907;SDS011;69061;52.236;5.188;2023-10-19T04:45:29;19.85;;;11.23;;
64907;SDS011;69061;52.236;5.188;2023-10-19T04:47:58;20.02;;;10.48;;
64907;SDS011;69061;52.236;5.188;2023-10-19T04:50:25;15.18;;;9.05;;
64907;SDS011;69061;52.236;5.188;2023-10-19T04:52:51;14.52;;;10.38;;
64907;SDS011;69061;52.236;5.188;2023-10-19T04:55:18;23.08;;;10.65;;
64907;SDS011;69061;52.236;5.188;2023-10-19T04:57:47;17.20;;;10.32;;
64907;SDS011;69061;52.236;5.188;2023-10-19T05:00:14;19.75;;;10.52;;
64907;SDS011;69061;52.236;5.188;2023-10-19T05:02:41;16.33;;;9.50;;
64907;SDS011;69061;52.236;5.188;2023-10-19T05:05:08;18.55;;;10.18;;
64907;SDS011;69061;52.236;5.188;2023-10-19T05:07:35;17.17;;;8.93;;
64907;SDS011;69061;52.236;5.188;2023-10-19T05:10:02;15.25;;;9.15;;
64907;SDS011;69061;52.236;5.188;2023-10-19T05:12:30;17.58;;;8.95;;
64907;SDS011;69061;52.236;5.188;2023-10-19T05:14:58;13.73;;;7.72;;
64907;SDS011;69061;52.236;5.188;2023-10-19T05:17:25;16.27;;;7.95;;
64907;SDS011;69061;52.236;5.188;2023-10-19T05:19:52;14.75;;;8.27;;
64907;SDS011;69061;52.236;5.188;2023-10-19T05:22:19;11.25;;;6.82;;
64907;SDS011;69061;52.236;5.188;2023-10-19T05:24:46;16.13;;;6.50;;
64907;SDS011;69061;52.236;5.188;2023-10-19T05:27:13;9.50;;;5.97;;
64907;SDS011;69061;52.236;5.188;2023-10-19T05:29:41;11.85;;;5.97;;
64907;SDS011;69061;52.236;5.188;2023-10-19T05:32:09;9.43;;;5.22;;
64907;SDS011;69061;52.236;5.188;2023-10-19T05:34:36;10.57;;;5.78;;
64907;SDS011;69061;52.236;5.188;2023-10-19T05:37:05;9.57;;;4.82;;
64907;SDS011;69061;52.236;5.188;2023-10-19T05:39:33;13.75;;;5.20;;
64907;SDS011;69061;52.236;5.188;2023-10-19T05:42:01;12.80;;;4.70;;
64907;SDS011;69061;52.236;5.188;2023-10-19T05:44:29;11.13;;;4.32;;
64907;SDS011;69061;52.236;5.188;2023-10-19T05:46:56;12.15;;;4.60;;
64907;SDS011;69061;52.236;5.188;2023-10-19T05:49:24;10.35;;;3.95;;
64907;SDS011;69061;52.236;5.188;2023-10-19T05:51:51;9.35;;;4.10;;
64907;SDS011;69061;52.236;5.188;2023-10-19T05:54:18;12.05;;;4.78;;
64907;SDS011;69061;52.236;5.188;2023-10-19T05:56:45;9.27;;;4.10;;
64907;SDS011;69061;52.236;5.188;2023-10-19T05:59:12;11.15;;;5.32;;
64907;SDS011;69061;52.236;5.188;2023-10-19T06:01:40;9.65;;;4.28;;
64907;SDS011;69061;52.236;5.188;2023-10-19T06:04:11;9.57;;;4.15;;
64907;SDS011;69061;52.236;5.188;2023-10-19T06:06:40;15.05;;;5.53;;
64907;SDS011;69061;52.236;5.188;2023-10-19T06:09:07;8.63;;;4.00;;
64907;SDS011;69061;52.236;5.188;2023-10-19T06:11:35;14.90;;;4.90;;
64907;SDS011;69061;52.236;5.188;2023-10-19T06:14:03;8.85;;;4.95;;
64907;SDS011;69061;52.236;5.188;2023-10-19T06:16:32;8.82;;;4.28;;
64907;SDS011;69061;52.236;5.188;2023-10-19T06:18:59;14.75;;;4.43;;
64907;SDS011;69061;52.236;5.188;2023-10-19T06:21:27;10.13;;;4.30;;
64907;SDS011;69061;52.236;5.188;2023-10-19T06:23:57;10.02;;;4.38;;
64907;SDS011;69061;52.236;5.188;2023-10-19T06:26:24;8.55;;;3.70;;
64907;SDS011;69061;52.236;5.188;2023-10-19T06:28:51;11.98;;;4.43;;
64907;SDS011;69061;52.236;5.188;2023-10-19T06:31:22;15.57;;;5.03;;
64907;SDS011;69061;52.236;5.188;2023-10-19T06:33:49;8.75;;;4.13;;
64907;SDS011;69061;52.236;5.188;2023-10-19T06:36:19;10.68;;;4.63;;
64907;SDS011;69061;52.236;5.188;2023-10-19T06:38:46;11.48;;;4.10;;
64907;SDS011;69061;52.236;5.188;2023-10-19T06:41:16;10.60;;;4.10;;
64907;SDS011;69061;52.236;5.188;2023-10-19T06:43:43;8.38;;;4.03;;
64907;SDS011;69061;52.236;5.188;2023-10-19T06:46:11;12.73;;;4.43;;
64907;SDS011;69061;52.236;5.188;2023-10-19T06:48:40;10.75;;;3.72;;
64907;SDS011;69061;52.236;5.188;2023-10-19T06:51:07;7.55;;;4.20;;
64907;SDS011;69061;52.236;5.188;2023-10-19T06:53:34;9.40;;;4.47;;
64907;SDS011;69061;52.236;5.188;2023-10-19T06:56:01;13.07;;;4.22;;
64907;SDS011;69061;52.236;5.188;2023-10-19T06:58:30;5.30;;;3.58;;
64907;SDS011;69061;52.236;5.188;2023-10-19T07:00:57;13.02;;;4.10;;
64907;SDS011;69061;52.236;5.188;2023-10-19T07:03:25;10.07;;;3.78;;
64907;SDS011;69061;52.236;5.188;2023-10-19T07:05:54;10.63;;;3.63;;
64907;SDS011;69061;52.236;5.188;2023-10-19T07:08:21;10.77;;;4.40;;
64907;SDS011;69061;52.236;5.188;2023-10-19T07:10:48;10.20;;;4.32;;
64907;SDS011;69061;52.236;5.188;2023-10-19T07:13:15;8.43;;;4.22;;
64907;SDS011;69061;52.236;5.188;2023-10-19T07:15:45;14.60;;;4.50;;
64907;SDS011;69061;52.236;5.188;2023-10-19T07:18:12;15.35;;;4.72;;
64907;SDS011;69061;52.236;5.188;2023-10-19T07:20:40;11.60;;;4.18;;
64907;SDS011;69061;52.236;5.188;2023-10-19T07:23:07;13.13;;;4.15;;
64907;SDS011;69061;52.236;5.188;2023-10-19T07:25:43;12.95;;;5.00;;
64907;SDS011;69061;52.236;5.188;2023-10-19T07:28:12;11.90;;;4.20;;
64907;SDS011;69061;52.236;5.188;2023-10-19T07:30:39;12.90;;;4.20;;
64907;SDS011;69061;52.236;5.188;2023-10-19T07:33:08;16.58;;;4.63;;
64907;SDS011;69061;52.236;5.188;2023-10-19T07:35:35;16.23;;;4.10;;
64907;SDS011;69061;52.236;5.188;2023-10-19T07:38:08;11.40;;;4.47;;
64907;SDS011;69061;52.236;5.188;2023-10-19T07:40:35;14.15;;;4.78;;
64907;SDS011;69061;52.236;5.188;2023-10-19T07:43:03;10.07;;;4.93;;
64907;SDS011;69061;52.236;5.188;2023-10-19T07:45:31;17.30;;;3.92;;
64907;SDS011;69061;52.236;5.188;2023-10-19T07:47:59;12.15;;;5.32;;
64907;SDS011;69061;52.236;5.188;2023-10-19T07:50:32;11.43;;;3.90;;
64907;SDS011;69061;52.236;5.188;2023-10-19T07:53:00;12.93;;;4.18;;
64907;SDS011;69061;52.236;5.188;2023-10-19T07:55:28;10.05;;;4.43;;
64907;SDS011;69061;52.236;5.188;2023-10-19T07:57:56;8.98;;;4.20;;
64907;SDS011;69061;52.236;5.188;2023-10-19T08:00:25;14.70;;;4.50;;
64907;SDS011;69061;52.236;5.188;2023-10-19T08:02:54;8.60;;;3.83;;
64907;SDS011;69061;52.236;5.188;2023-10-19T08:05:22;14.52;;;5.10;;
64907;SDS011;69061;52.236;5.188;2023-10-19T08:07:53;11.25;;;3.95;;
64907;SDS011;69061;52.236;5.188;2023-10-19T08:10:22;13.88;;;4.20;;
64907;SDS011;69061;52.236;5.188;2023-10-19T08:12:51;23.10;;;5.60;;
64907;SDS011;69061;52.236;5.188;2023-10-19T08:15:21;12.27;;;4.07;;
64907;SDS011;69061;52.236;5.188;2023-10-19T08:17:48;8.73;;;4.35;;
64907;SDS011;69061;52.236;5.188;2023-10-19T08:20:16;14.65;;;5.22;;
64907;SDS011;69061;52.236;5.188;2023-10-19T08:22:48;13.48;;;4.78;;
64907;SDS011;69061;52.236;5.188;2023-10-19T08:25:16;12.30;;;4.72;;
64907;SDS011;69061;52.236;5.188;2023-10-19T08:27:44;9.02;;;4.45;;
64907;SDS011;69061;52.236;5.188;2023-10-19T08:30:14;16.70;;;4.68;;
64907;SDS011;69061;52.236;5.188;2023-10-19T08:32:42;11.55;;;4.32;;
64907;SDS011;69061;52.236;5.188;2023-10-19T08:35:13;7.90;;;3.97;;
64907;SDS011;69061;52.236;5.188;2023-10-19T08:37:40;12.40;;;5.13;;
64907;SDS011;69061;52.236;5.188;2023-10-19T08:40:11;11.55;;;4.40;;
64907;SDS011;69061;52.236;5.188;2023-10-19T08:42:41;12.80;;;4.22;;
64907;SDS011;69061;52.236;5.188;2023-10-19T08:45:10;12.75;;;4.43;;
64907;SDS011;69061;52.236;5.188;2023-10-19T08:47:40;9.75;;;4.97;;
64907;SDS011;69061;52.236;5.188;2023-10-19T08:50:09;11.32;;;5.05;;
64907;SDS011;69061;52.236;5.188;2023-10-19T08:52:37;10.35;;;4.85;;
64907;SDS011;69061;52.236;5.188;2023-10-19T08:55:05;14.45;;;4.93;;
64907;SDS011;69061;52.236;5.188;2023-10-19T08:57:34;9.68;;;4.60;;
64907;SDS011;69061;52.236;5.188;2023-10-19T09:00:05;11.50;;;4.50;;
64907;SDS011;69061;52.236;5.188;2023-10-19T09:02:33;18.80;;;4.43;;
64907;SDS011;69061;52.236;5.188;2023-10-19T09:05:01;12.60;;;5.38;;
64907;SDS011;69061;52.236;5.188;2023-10-19T09:07:32;10.68;;;5.10;;
64907;SDS011;69061;52.236;5.188;2023-10-19T09:09:59;12.57;;;5.72;;
64907;SDS011;69061;52.236;5.188;2023-10-19T09:12:28;16.73;;;5.60;;
64907;SDS011;69061;52.236;5.188;2023-10-19T09:14:55;16.02;;;5.45;;
64907;SDS011;69061;52.236;5.188;2023-10-19T09:17:28;14.40;;;5.95;;
64907;SDS011;69061;52.236;5.188;2023-10-19T09:19:55;12.63;;;5.00;;
64907;SDS011;69061;52.236;5.188;2023-10-19T09:22:24;12.07;;;5.25;;
64907;SDS011;69061;52.236;5.188;2023-10-19T09:24:52;11.25;;;6.07;;
64907;SDS011;69061;52.236;5.188;2023-10-19T09:27:19;15.15;;;5.55;;
64907;SDS011;69061;52.236;5.188;2023-10-19T09:29:46;12.07;;;5.10;;
64907;SDS011;69061;52.236;5.188;2023-10-19T09:32:13;16.00;;;5.25;;
64907;SDS011;69061;52.236;5.188;2023-10-19T09:34:42;19.35;;;5.70;;
64907;SDS011;69061;52.236;5.188;2023-10-19T09:37:12;18.73;;;5.80;;
64907;SDS011;69061;52.236;5.188;2023-10-19T09:39:42;13.32;;;5.20;;
64907;SDS011;69061;52.236;5.188;2023-10-19T09:42:10;12.63;;;5.50;;
64907;SDS011;69061;52.236;5.188;2023-10-19T09:44:42;11.80;;;5.20;;
64907;SDS011;69061;52.236;5.188;2023-10-19T09:47:11;21.52;;;5.55;;
64907;SDS011;69061;52.236;5.188;2023-10-19T09:49:46;13.30;;;5.13;;
64907;SDS011;69061;52.236;5.188;2023-10-19T09:52:15;17.40;;;5.03;;
64907;SDS011;69061;52.236;5.188;2023-10-19T09:54:47;10.50;;;4.78;;
64907;SDS011;69061;52.236;5.188;2023-10-19T09:57:21;21.95;;;5.93;;
64907;SDS011;69061;52.236;5.188;2023-10-19T09:59:56;15.02;;;5.57;;
64907;SDS011;69061;52.236;5.188;2023-10-19T10:02:33;13.05;;;4.82;;
64907;SDS011;69061;52.236;5.188;2023-10-19T10:05:02;12.43;;;5.00;;
64907;SDS011;69061;52.236;5.188;2023-10-19T10:07:29;14.65;;;5.10;;
64907;SDS011;69061;52.236;5.188;2023-10-19T10:09:58;14.85;;;5.20;;
64907;SDS011;69061;52.236;5.188;2023-10-19T10:12:25;18.10;;;6.10;;
64907;SDS011;69061;52.236;5.188;2023-10-19T10:14:56;13.88;;;5.85;;
64907;SDS011;69061;52.236;5.188;2023-10-19T10:17:24;15.63;;;5.22;;
64907;SDS011;69061;52.236;5.188;2023-10-19T10:19:53;13.60;;;4.80;;
64907;SDS011;69061;52.236;5.188;2023-10-19T10:22:24;18.00;;;5.60;;
64907;SDS011;69061;52.236;5.188;2023-10-19T10:24:53;20.92;;;6.63;;
64907;SDS011;69061;52.236;5.188;2023-10-19T10:27:22;14.77;;;5.88;;
64907;SDS011;69061;52.236;5.188;2023-10-19T10:29:58;16.95;;;6.13;;
64907;SDS011;69061;52.236;5.188;2023-10-19T10:32:43;17.55;;;6.07;;
64907;SDS011;69061;52.236;5.188;2023-10-19T10:35:11;15.80;;;5.55;;
64907;SDS011;69061;52.236;5.188;2023-10-19T10:38:27;14.55;;;5.38;;
64907;SDS011;69061;52.236;5.188;2023-10-19T10:41:00;20.92;;;5.80;;
64907;SDS011;69061;52.236;5.188;2023-10-19T10:43:27;16.00;;;5.72;;
64907;SDS011;69061;52.236;5.188;2023-10-19T10:46:02;17.23;;;6.60;;
64907;SDS011;69061;52.236;5.188;2023-10-19T10:48:29;21.58;;;5.60;;
64907;SDS011;69061;52.236;5.188;2023-10-19T10:50:56;17.70;;;5.45;;
64907;SDS011;69061;52.236;5.188;2023-10-19T10:53:23;15.90;;;5.53;;
64907;SDS011;69061;52.236;5.188;2023-10-19T10:55:57;17.30;;;6.80;;
64907;SDS011;69061;52.236;5.188;2023-10-19T10:58:26;27.42;;;7.28;;
64907;SDS011;69061;52.236;5.188;2023-10-19T11:00:53;15.68;;;5.80;;
64907;SDS011;69061;52.236;5.188;2023-10-19T11:03:19;18.42;;;6.40;;
64907;SDS011;69061;52.236;5.188;2023-10-19T11:05:47;23.30;;;6.45;;
64907;SDS011;69061;52.236;5.188;2023-10-19T11:08:15;14.43;;;5.50;;
64907;SDS011;69061;52.236;5.188;2023-10-19T11:10:43;15.98;;;6.47;;
64907;SDS011;69061;52.236;5.188;2023-10-19T11:13:13;13.82;;;5.68;;
64907;SDS011;69061;52.236;5.188;2023-10-19T11:15:48;26.50;;;6.32;;
64907;SDS011;69061;52.236;5.188;2023-10-19T11:18:27;16.92;;;6.15;;
64907;SDS011;69061;52.236;5.188;2023-10-19T11:20:55;17.55;;;5.10;;
64907;SDS011;69061;52.236;5.188;2023-10-19T11:23:34;23.77;;;6.35;;
64907;SDS011;69061;52.236;5.188;2023-10-19T11:26:02;16.73;;;5.15;;
64907;SDS011;69061;52.236;5.188;2023-10-19T11:28:31;28.33;;;6.15;;
64907;SDS011;69061;52.236;5.188;2023-10-19T11:31:11;24.90;;;6.57;;
64907;SDS011;69061;52.236;5.188;2023-10-19T11:33:41;13.37;;;4.93;;
64907;SDS011;69061;52.236;5.188;2023-10-19T11:36:09;15.30;;;5.88;;
64907;SDS011;69061;52.236;5.188;2023-10-19T11:38:41;13.82;;;5.03;;
64907;SDS011;69061;52.236;5.188;2023-10-19T11:41:08;23.13;;;5.95;;
64907;SDS011;69061;52.236;5.188;2023-10-19T11:43:37;19.60;;;6.28;;
64907;SDS011;69061;52.236;5.188;2023-10-19T11:46:05;20.65;;;6.93;;
64907;SDS011;69061;52.236;5.188;2023-10-19T11:48:33;22.33;;;5.95;;
64907;SDS011;69061;52.236;5.188;2023-10-19T11:51:01;20.02;;;6.00;;
64907;SDS011;69061;52.236;5.188;2023-10-19T11:53:32;30.05;;;6.85;;
64907;SDS011;69061;52.236;5.188;2023-10-19T11:56:00;14.45;;;5.55;;
64907;SDS011;69061;52.236;5.188;2023-10-19T11:58:29;14.73;;;5.13;;
64907;SDS011;69061;52.236;5.188;2023-10-19T12:00:59;17.38;;;5.75;;
64907;SDS011;69061;52.236;5.188;2023-10-19T12:03:25;19.38;;;5.53;;
64907;SDS011;69061;52.236;5.188;2023-10-19T12:05:53;16.55;;;5.00;;
64907;SDS011;69061;52.236;5.188;2023-10-19T12:08:20;19.20;;;6.00;;
64907;SDS011;69061;52.236;5.188;2023-10-19T12:10:47;22.15;;;5.65;;
64907;SDS011;69061;52.236;5.188;2023-10-19T12:13:15;20.60;;;5.35;;
64907;SDS011;69061;52.236;5.188;2023-10-19T12:15:42;20.00;;;5.55;;
64907;SDS011;69061;52.236;5.188;2023-10-19T12:18:17;17.42;;;6.65;;
64907;SDS011;69061;52.236;5.188;2023-10-19T12:20:45;27.58;;;6.72;;
64907;SDS011;69061;52.236;5.188;2023-10-19T12:23:12;17.17;;;5.65;;
64907;SDS011;69061;52.236;5.188;2023-10-19T12:25:39;16.20;;;5.70;;
64907;SDS011;69061;52.236;5.188;2023-10-19T12:28:07;25.05;;;7.65;;
64907;SDS011;69061;52.236;5.188;2023-10-19T12:30:38;25.42;;;6.50;;
64907;SDS011;69061;52.236;5.188;2023-10-19T12:33:06;23.33;;;5.65;;
64907;SDS011;69061;52.236;5.188;2023-10-19T12:35:38;21.33;;;5.05;;
64907;SDS011;69061;52.236;5.188;2023-10-19T12:38:15;17.55;;;5.70;;
64907;SDS011;69061;52.236;5.188;2023-10-19T12:40:43;17.48;;;4.97;;
64907;SDS011;69061;52.236;5.188;2023-10-19T12:43:11;11.93;;;5.25;;
64907;SDS011;69061;52.236;5.188;2023-10-19T12:45:39;20.65;;;5.78;;
64907;SDS011;69061;52.236;5.188;2023-10-19T12:48:09;17.42;;;6.43;;
64907;SDS011;69061;52.236;5.188;2023-10-19T12:50:38;17.10;;;5.22;;
64907;SDS011;69061;52.236;5.188;2023-10-19T12:53:06;24.60;;;6.22;;
64907;SDS011;69061;52.236;5.188;2023-10-19T12:55:32;24.48;;;6.60;;
64907;SDS011;69061;52.236;5.188;2023-10-19T12:58:02;20.45;;;5.88;;
64907;SDS011;69061;52.236;5.188;2023-10-19T13:00:34;15.00;;;5.38;;
64907;SDS011;69061;52.236;5.188;2023-10-19T13:03:09;21.20;;;5.55;;
64907;SDS011;69061;52.236;5.188;2023-10-19T13:05:40;18.35;;;5.88;;
64907;SDS011;69061;52.236;5.188;2023-10-19T13:08:08;31.80;;;6.05;;
64907;SDS011;69061;52.236;5.188;2023-10-19T13:10:35;15.52;;;5.20;;
64907;SDS011;69061;52.236;5.188;2023-10-19T13:13:05;14.98;;;4.97;;
64907;SDS011;69061;52.236;5.188;2023-10-19T13:15:37;18.27;;;5.50;;
64907;SDS011;69061;52.236;5.188;2023-10-19T13:18:05;22.20;;;5.75;;
64907;SDS011;69061;52.236;5.188;2023-10-19T13:20:34;16.83;;;5.07;;
64907;SDS011;69061;52.236;5.188;2023-10-19T13:23:04;19.83;;;5.80;;
64907;SDS011;69061;52.236;5.188;2023-10-19T13:25:32;14.68;;;5.45;;
64907;SDS011;69061;52.236;5.188;2023-10-19T13:28:07;22.58;;;5.72;;
64907;SDS011;69061;52.236;5.188;2023-10-19T13:30:36;20.15;;;6.05;;
64907;SDS011;69061;52.236;5.188;2023-10-19T13:33:04;20.52;;;5.68;;
64907;SDS011;69061;52.236;5.188;2023-10-19T13:35:32;20.95;;;6.95;;
64907;SDS011;69061;52.236;5.188;2023-10-19T13:37:59;22.67;;;6.22;;
64907;SDS011;69061;52.236;5.188;2023-10-19T13:40:27;25.63;;;6.68;;
64907;SDS011;69061;52.236;5.188;2023-10-19T13:42:56;19.30;;;6.03;;
64907;SDS011;69061;52.236;5.188;2023-10-19T13:45:23;18.77;;;6.75;;
64907;SDS011;69061;52.236;5.188;2023-10-19T13:47:50;30.88;;;7.15;;
64907;SDS011;69061;52.236;5.188;2023-10-19T13:50:20;22.85;;;6.43;;
64907;SDS011;69061;52.236;5.188;2023-10-19T13:52:48;19.65;;;5.85;;
64907;SDS011;69061;52.236;5.188;2023-10-19T13:55:16;22.38;;;6.15;;
64907;SDS011;69061;52.236;5.188;2023-10-19T13:57:45;20.92;;;5.80;;
64907;SDS011;69061;52.236;5.188;2023-10-19T14:00:12;15.05;;;5.53;;
64907;SDS011;69061;52.236;5.188;2023-10-19T14:02:44;16.40;;;6.35;;
64907;SDS011;69061;52.236;5.188;2023-10-19T14:05:11;19.73;;;6.30;;
64907;SDS011;69061;52.236;5.188;2023-10-19T14:07:38;19.58;;;7.00;;
64907;SDS011;69061;52.236;5.188;2023-10-19T14:10:06;14.90;;;6.80;;
64907;SDS011;69061;52.236;5.188;2023-10-19T14:12:37;29.40;;;8.18;;
64907;SDS011;69061;52.236;5.188;2023-10-19T14:15:09;25.52;;;6.60;;
64907;SDS011;69061;52.236;5.188;2023-10-19T14:17:39;17.92;;;5.63;;
64907;SDS011;69061;52.236;5.188;2023-10-19T14:20:06;27.92;;;7.97;;
64907;SDS011;69061;52.236;5.188;2023-10-19T14:22:37;23.83;;;7.88;;
64907;SDS011;69061;52.236;5.188;2023-10-19T14:25:05;19.60;;;7.25;;
64907;SDS011;69061;52.236;5.188;2023-10-19T14:27:37;26.67;;;7.25;;
64907;SDS011;69061;52.236;5.188;2023-10-19T14:30:05;27.95;;;7.88;;
64907;SDS011;69061;52.236;5.188;2023-10-19T14:32:34;19.75;;;7.32;;
64907;SDS011;69061;52.236;5.188;2023-10-19T14:35:00;27.38;;;7.13;;
64907;SDS011;69061;52.236;5.188;2023-10-19T14:37:28;28.77;;;7.97;;
64907;SDS011;69061;52.236;5.188;2023-10-19T14:39:55;22.92;;;8.38;;
64907;SDS011;69061;52.236;5.188;2023-10-19T14:42:23;20.08;;;6.88;;